createdAt,value
2017-12-10T00:00:31.496Z,3.40
2017-12-10T00:01:31.007Z,3.33
2017-12-10T00:03:23.922Z,3.39
2017-12-10T00:04:23.951Z,3.43
2017-12-10T00:06:18.440Z,3.47
2017-12-10T00:07:18.447Z,3.43
2017-12-10T00:09:12.448Z,3.42
2017-12-10T00:10:12.519Z,3.45
2017-12-10T00:12:06.408Z,3.54
2017-12-10T00:13:06.393Z,3.42
2017-12-10T00:14:59.936Z,3.45
2017-12-10T00:15:59.480Z,3.42
2017-12-10T00:17:54.039Z,3.43
2017-12-10T00:18:53.976Z,3.45
2017-12-10T00:20:47.504Z,3.43
2017-12-10T00:21:47.521Z,3.47
2017-12-10T00:23:40.490Z,3.36
2017-12-10T00:24:40.473Z,3.45
2017-12-10T00:26:33.441Z,3.48
2017-12-10T00:27:33.433Z,3.42
2017-12-10T00:29:27.922Z,3.51
2017-12-10T00:30:27.953Z,3.40
2017-12-10T00:32:21.923Z,3.43
2017-12-10T00:33:21.921Z,3.39
2017-12-10T00:35:14.913Z,3.50
2017-12-10T00:36:14.929Z,3.35
2017-12-10T00:38:08.005Z,3.45
2017-12-10T00:39:08.354Z,3.42
2017-12-10T00:41:02.410Z,3.48
2017-12-10T00:42:02.393Z,3.47
2017-12-10T00:43:56.857Z,3.40
2017-12-10T00:44:56.906Z,3.39
2017-12-10T00:46:50.489Z,3.39
2017-12-10T00:47:50.442Z,3.40
2017-12-10T00:49:44.994Z,3.45
2017-12-10T00:50:44.937Z,3.40
2017-12-10T00:52:38.922Z,3.57
2017-12-10T00:53:38.897Z,3.40
2017-12-10T00:55:33.417Z,3.42
2017-12-10T00:56:33.385Z,3.50
2017-12-10T00:58:26.938Z,3.43
2017-12-10T00:59:26.962Z,3.48
2017-12-10T01:01:20.361Z,3.58
2017-12-10T01:02:20.377Z,3.52
2017-12-10T01:04:13.954Z,3.48
2017-12-10T01:05:13.938Z,3.45
2017-12-10T01:07:07.065Z,3.51
2017-12-10T01:08:07.114Z,3.51
2017-12-10T01:10:01.507Z,3.48
2017-12-10T01:11:01.516Z,3.50
2017-12-10T01:12:55.099Z,3.43
2017-12-10T01:13:55.475Z,3.42
2017-12-10T01:15:47.955Z,3.47
2017-12-10T01:16:48.523Z,3.45
2017-12-10T01:18:40.867Z,3.47
2017-12-10T01:19:40.906Z,3.51
2017-12-10T01:21:33.923Z,3.50
2017-12-10T01:22:33.931Z,3.48
2017-12-10T01:24:26.851Z,3.43
2017-12-10T01:25:26.859Z,3.45
2017-12-10T01:27:19.843Z,3.50
2017-12-10T01:28:19.835Z,3.45
2017-12-10T01:30:14.292Z,3.50
2017-12-10T01:31:14.332Z,3.40
2017-12-10T01:33:08.871Z,3.54
2017-12-10T01:34:08.795Z,3.40
2017-12-10T01:36:02.484Z,3.42
2017-12-10T01:37:02.492Z,3.40
2017-12-10T01:38:57.011Z,3.43
2017-12-10T01:39:56.996Z,3.43
2017-12-10T01:41:51.427Z,3.40
2017-12-10T01:42:51.451Z,3.42
2017-12-10T01:44:45.011Z,3.31
2017-12-10T01:45:45.103Z,3.26
2017-12-10T01:47:40.908Z,3.33
2017-12-10T01:48:40.932Z,3.36
2017-12-10T01:50:34.524Z,3.23
2017-12-10T01:51:34.508Z,3.21
2017-12-10T01:53:27.437Z,3.29
2017-12-10T01:54:27.428Z,3.26
2017-12-10T01:56:20.382Z,3.35
2017-12-10T01:57:20.364Z,3.40
2017-12-10T01:59:13.356Z,3.45
2017-12-10T02:00:13.332Z,3.40
2017-12-10T02:02:07.820Z,3.45
2017-12-10T02:03:07.844Z,3.45
2017-12-10T02:05:01.292Z,3.39
2017-12-10T02:06:01.316Z,3.47
2017-12-10T02:07:54.397Z,3.45
2017-12-10T02:08:54.316Z,3.39
2017-12-10T02:10:48.732Z,3.40
2017-12-10T02:11:48.757Z,3.50
2017-12-10T02:13:43.205Z,3.33
2017-12-10T02:14:43.229Z,3.48
2017-12-10T02:16:37.661Z,3.36
2017-12-10T02:17:37.725Z,3.47
2017-12-10T02:19:31.141Z,3.47
2017-12-10T02:20:31.133Z,3.51
2017-12-10T02:22:25.597Z,3.40
2017-12-10T02:23:25.655Z,3.40
2017-12-10T02:25:20.109Z,3.40
2017-12-10T02:26:20.101Z,3.43
2017-12-10T02:28:14.549Z,3.50
2017-12-10T02:29:14.599Z,3.40
2017-12-10T02:31:08.173Z,3.52
2017-12-10T02:32:08.127Z,3.50
2017-12-10T02:34:01.125Z,3.42
2017-12-10T02:35:01.137Z,3.43
2017-12-10T02:36:54.120Z,3.52
2017-12-10T02:37:54.307Z,3.48
2017-12-10T02:39:47.185Z,3.40
2017-12-10T02:40:47.123Z,3.40
2017-12-10T02:42:40.068Z,3.45
2017-12-10T02:43:40.089Z,3.52
2017-12-10T02:45:32.985Z,3.52
2017-12-10T02:46:33.025Z,3.51
2017-12-10T02:48:26.001Z,3.55
2017-12-10T02:49:25.985Z,3.52
2017-12-10T02:51:19.067Z,3.58
2017-12-10T02:52:19.002Z,3.57
2017-12-10T02:54:12.041Z,3.65
2017-12-10T02:55:12.017Z,3.65
2017-12-10T02:57:04.985Z,3.62
2017-12-10T02:58:04.993Z,3.58
2017-12-10T02:59:58.521Z,3.62
2017-12-10T03:00:58.529Z,3.52
2017-12-10T03:02:52.129Z,3.52
2017-12-10T03:03:52.241Z,3.52
2017-12-10T03:05:48.065Z,3.48
2017-12-10T03:06:48.122Z,3.50
2017-12-10T03:08:42.554Z,3.54
2017-12-10T03:09:41.627Z,3.62
2017-12-10T03:11:36.161Z,3.61
2017-12-10T03:12:36.170Z,3.61
2017-12-10T03:14:29.738Z,3.58
2017-12-10T03:15:29.725Z,3.62
2017-12-10T03:17:23.722Z,3.66
2017-12-10T03:18:23.706Z,3.66
2017-12-10T03:20:16.762Z,3.62
2017-12-10T03:21:16.738Z,3.61
2017-12-10T03:23:11.210Z,3.65
2017-12-10T03:24:11.203Z,3.68
2017-12-10T03:26:05.666Z,3.69
2017-12-10T03:27:05.650Z,3.76
2017-12-10T03:28:59.235Z,3.72
2017-12-10T03:29:59.218Z,3.80
2017-12-10T03:31:52.155Z,3.70
2017-12-10T03:32:52.167Z,3.65
2017-12-10T03:34:45.101Z,3.61
2017-12-10T03:35:45.107Z,3.76
2017-12-10T03:37:41.067Z,3.72
2017-12-10T03:38:41.091Z,3.73
2017-12-10T03:40:34.555Z,3.88
2017-12-10T03:41:34.574Z,3.76
2017-12-10T03:43:27.643Z,3.80
2017-12-10T03:44:27.603Z,3.86
2017-12-10T03:46:20.563Z,3.83
2017-12-10T03:47:20.651Z,3.79
2017-12-10T03:49:15.067Z,3.72
2017-12-10T03:50:15.019Z,3.75
2017-12-10T03:52:09.059Z,3.90
2017-12-10T03:53:09.483Z,3.87
2017-12-10T03:55:02.124Z,3.90
2017-12-10T03:56:02.999Z,3.90
2017-12-10T03:57:55.004Z,3.94
2017-12-10T03:58:54.980Z,3.80
2017-12-10T04:00:49.004Z,3.86
2017-12-10T04:01:47.980Z,3.90
2017-12-10T04:03:41.052Z,3.93
2017-12-10T04:04:41.043Z,3.90
2017-12-10T04:06:35.380Z,3.91
2017-12-10T04:07:35.396Z,3.93
2017-12-10T04:09:29.436Z,3.87
2017-12-10T04:10:29.428Z,3.80
2017-12-10T04:12:23.892Z,3.86
2017-12-10T04:13:23.869Z,3.86
2017-12-10T04:15:17.487Z,3.80
2017-12-10T04:16:17.526Z,3.79
2017-12-10T04:18:10.433Z,3.69
2017-12-10T04:19:10.434Z,3.76
2017-12-10T04:21:04.894Z,3.83
2017-12-10T04:22:04.920Z,3.72
2017-12-10T04:23:58.937Z,3.70
2017-12-10T04:24:58.946Z,3.76
2017-12-10T04:26:52.372Z,3.84
2017-12-10T04:27:52.377Z,3.90
2017-12-10T04:29:45.881Z,3.79
2017-12-10T04:30:46.345Z,3.90
2017-12-10T04:32:40.345Z,3.78
2017-12-10T04:33:40.353Z,3.83
2017-12-10T04:35:37.841Z,3.90
2017-12-10T04:36:34.953Z,3.90
2017-12-10T04:38:28.362Z,3.90
2017-12-10T04:39:28.417Z,3.83
2017-12-10T04:41:22.005Z,3.73
2017-12-10T04:42:22.051Z,3.79
2017-12-10T04:44:14.954Z,3.78
2017-12-10T04:45:14.949Z,3.72
2017-12-10T04:47:09.404Z,3.70
2017-12-10T04:48:09.426Z,3.62
2017-12-10T04:50:02.963Z,3.72
2017-12-10T04:51:03.003Z,3.62
2017-12-10T04:52:57.499Z,3.69
2017-12-10T04:53:57.475Z,3.79
2017-12-10T04:55:52.059Z,3.72
2017-12-10T04:56:52.139Z,3.65
2017-12-10T04:58:45.980Z,3.69
2017-12-10T04:59:44.971Z,3.79
2017-12-10T05:01:39.027Z,3.73
2017-12-10T05:02:38.996Z,3.75
2017-12-10T05:04:34.972Z,3.75
2017-12-10T05:05:34.964Z,3.69
2017-12-10T05:07:28.970Z,3.75
2017-12-10T05:08:28.436Z,3.75
2017-12-10T05:10:23.020Z,3.76
2017-12-10T05:11:21.436Z,3.79
2017-12-10T05:13:14.349Z,3.57
2017-12-10T05:14:14.420Z,3.60
2017-12-10T05:16:07.468Z,3.61
2017-12-10T05:17:07.413Z,3.68
2017-12-10T05:19:01.876Z,3.73
2017-12-10T05:20:01.901Z,3.62
2017-12-10T05:21:56.896Z,3.80
2017-12-10T05:22:55.925Z,3.70
2017-12-10T05:24:48.973Z,3.72
2017-12-10T05:25:48.981Z,3.62
2017-12-10T05:27:43.373Z,3.72
2017-12-10T05:28:43.381Z,3.72
2017-12-10T05:30:37.812Z,3.62
2017-12-10T05:31:37.846Z,3.69
2017-12-10T05:33:32.540Z,3.75
2017-12-10T05:34:31.452Z,3.65
2017-12-10T05:36:24.333Z,3.75
2017-12-10T05:37:24.941Z,3.73
2017-12-10T05:39:17.358Z,3.58
2017-12-10T05:40:17.373Z,3.58
2017-12-10T05:42:10.268Z,3.76
2017-12-10T05:43:10.300Z,3.78
2017-12-10T05:45:03.372Z,3.83
2017-12-10T05:46:03.788Z,3.75
2017-12-10T05:47:56.500Z,3.79
2017-12-10T05:48:56.526Z,3.79
2017-12-10T05:50:49.500Z,3.72
2017-12-10T05:51:49.477Z,3.66
2017-12-10T05:53:42.482Z,3.72
2017-12-10T05:54:42.486Z,3.68
2017-12-10T05:56:36.972Z,3.72
2017-12-10T05:57:36.989Z,3.68
2017-12-10T05:59:30.509Z,3.72
2017-12-10T06:00:30.509Z,3.76
2017-12-10T06:02:23.533Z,3.69
2017-12-10T06:03:23.485Z,3.79
2017-12-10T06:05:16.485Z,3.76
2017-12-10T06:06:16.453Z,3.69
2017-12-10T06:08:09.389Z,3.69
2017-12-10T06:09:09.446Z,3.73
2017-12-10T06:11:05.423Z,3.75
2017-12-10T06:12:05.391Z,3.76
2017-12-10T06:13:59.350Z,3.75
2017-12-10T06:14:59.382Z,3.68
2017-12-10T06:16:52.390Z,3.84
2017-12-10T06:17:52.846Z,3.83
2017-12-10T06:19:45.310Z,3.76
2017-12-10T06:20:45.326Z,3.83
2017-12-10T06:22:38.295Z,3.73
2017-12-10T06:23:38.286Z,3.80
2017-12-10T06:25:31.382Z,3.58
2017-12-10T06:26:31.319Z,3.60
2017-12-10T06:28:24.187Z,3.50
2017-12-10T06:29:24.212Z,3.62
2017-12-10T06:31:18.708Z,3.61
2017-12-10T06:32:18.724Z,3.60
2017-12-10T06:34:12.163Z,3.66
2017-12-10T06:35:12.187Z,3.54
2017-12-10T06:37:05.195Z,3.68
2017-12-10T06:38:05.303Z,3.52
2017-12-10T06:39:58.178Z,3.61
2017-12-10T06:40:58.233Z,3.50
2017-12-10T06:42:51.714Z,3.50
2017-12-10T06:43:51.730Z,3.57
2017-12-10T06:45:47.674Z,3.39
2017-12-10T06:46:47.674Z,3.36
2017-12-10T06:48:41.146Z,3.62
2017-12-10T06:49:41.177Z,3.51
2017-12-10T06:51:35.882Z,3.40
2017-12-10T06:52:35.874Z,3.43
2017-12-10T06:54:30.378Z,3.45
2017-12-10T06:55:30.362Z,3.51
2017-12-10T06:57:24.809Z,3.48
2017-12-10T06:58:24.833Z,3.47
2017-12-10T07:00:19.355Z,3.47
2017-12-10T07:01:19.402Z,3.36
2017-12-10T07:03:12.291Z,3.26
2017-12-10T07:04:12.506Z,3.31
2017-12-10T07:06:05.907Z,3.29
2017-12-10T07:07:05.819Z,3.31
2017-12-10T07:09:00.283Z,3.23
2017-12-10T07:10:00.275Z,3.36
2017-12-10T07:11:54.813Z,3.36
2017-12-10T07:12:54.770Z,3.20
2017-12-10T07:14:50.787Z,3.40
2017-12-10T07:15:50.741Z,3.28
2017-12-10T07:17:45.203Z,3.35
2017-12-10T07:18:45.227Z,3.33
2017-12-10T07:20:39.684Z,3.31
2017-12-10T07:21:40.132Z,3.29
2017-12-10T07:23:34.205Z,3.24
2017-12-10T07:24:34.189Z,3.20
2017-12-10T07:26:27.809Z,3.23
2017-12-10T07:27:27.904Z,3.24
2017-12-10T07:29:22.190Z,3.29
2017-12-10T07:30:22.181Z,3.21
2017-12-10T07:32:18.172Z,3.28
2017-12-10T07:33:18.171Z,3.23
2017-12-10T07:35:12.610Z,3.32
2017-12-10T07:36:12.642Z,3.24
2017-12-10T07:38:07.121Z,3.26
2017-12-10T07:39:07.137Z,3.26
2017-12-10T07:41:01.610Z,3.21
2017-12-10T07:42:01.602Z,3.33
2017-12-10T07:43:56.092Z,3.43
2017-12-10T07:44:56.091Z,3.35
2017-12-10T07:46:50.538Z,3.39
2017-12-10T07:47:50.578Z,3.43
2017-12-10T07:49:46.514Z,3.40
2017-12-10T07:50:46.539Z,3.39
2017-12-10T07:52:40.557Z,3.60
2017-12-10T07:53:40.139Z,3.57
2017-12-10T07:55:35.074Z,3.50
2017-12-10T07:56:35.038Z,3.51
2017-12-10T07:58:30.987Z,3.61
2017-12-10T07:59:31.010Z,3.58
2017-12-10T08:01:26.995Z,3.62
2017-12-10T08:02:26.971Z,3.57
2017-12-10T08:04:20.416Z,3.58
2017-12-10T08:05:20.450Z,3.62
2017-12-10T08:07:14.914Z,3.58
2017-12-10T08:08:14.922Z,3.62
2017-12-10T08:10:09.370Z,3.65
2017-12-10T08:11:09.402Z,3.66
2017-12-10T08:13:05.362Z,3.60
2017-12-10T08:14:05.355Z,3.60
2017-12-10T08:15:59.842Z,3.61
2017-12-10T08:16:59.850Z,3.69
2017-12-10T08:18:54.330Z,3.73
2017-12-10T08:19:54.330Z,3.69
2017-12-10T08:21:48.795Z,3.72
2017-12-10T08:22:48.810Z,3.73
2017-12-10T08:24:43.259Z,3.73
2017-12-10T08:25:43.275Z,3.70
2017-12-10T08:27:37.706Z,3.65
2017-12-10T08:28:37.731Z,3.73
2017-12-10T08:30:32.225Z,3.86
2017-12-10T08:31:32.219Z,3.87
2017-12-10T08:33:26.651Z,3.91
2017-12-10T08:34:26.691Z,3.80
2017-12-10T08:36:21.171Z,4.00
2017-12-10T08:37:21.163Z,4.09
2017-12-10T08:39:15.612Z,4.02
2017-12-10T08:40:15.643Z,4.06
2017-12-10T08:42:11.619Z,3.90
2017-12-10T08:43:11.623Z,3.87
2017-12-10T08:45:06.060Z,3.91
2017-12-10T08:46:06.084Z,3.97
2017-12-10T08:48:00.556Z,4.00
2017-12-10T08:49:00.556Z,3.98
2017-12-10T08:50:55.015Z,3.86
2017-12-10T08:51:55.020Z,3.88
2017-12-10T08:53:49.507Z,4.00
2017-12-10T08:54:49.508Z,4.05
2017-12-10T08:56:43.996Z,4.11
2017-12-10T08:57:43.968Z,4.06
2017-12-10T08:59:38.444Z,4.05
2017-12-10T09:00:38.444Z,4.02
2017-12-10T09:02:32.932Z,4.08
2017-12-10T09:03:32.940Z,4.26
2017-12-10T09:05:27.381Z,4.26
2017-12-10T09:06:27.428Z,4.23
2017-12-10T09:08:21.884Z,4.27
2017-12-10T09:09:21.877Z,4.30
2017-12-10T09:11:16.350Z,4.32
2017-12-10T09:12:16.366Z,4.23
2017-12-10T09:14:10.829Z,4.30
2017-12-10T09:15:10.853Z,4.23
2017-12-10T09:17:05.277Z,4.27
2017-12-10T09:18:05.309Z,4.30
2017-12-10T09:19:59.781Z,4.42
2017-12-10T09:20:59.789Z,4.36
2017-12-10T09:22:54.237Z,4.42
2017-12-10T09:23:54.261Z,4.51
2017-12-10T09:25:48.741Z,4.42
2017-12-10T09:26:48.741Z,4.36
2017-12-10T09:28:43.221Z,4.29
2017-12-10T09:29:43.205Z,4.36
2017-12-10T09:31:37.767Z,4.26
2017-12-10T09:32:37.686Z,4.30
2017-12-10T09:34:32.126Z,4.24
2017-12-10T09:35:32.157Z,4.24
2017-12-10T09:37:26.654Z,4.20
2017-12-10T09:38:26.629Z,4.23
2017-12-10T09:40:21.102Z,4.20
2017-12-10T09:41:21.110Z,4.24
2017-12-10T09:43:17.207Z,4.22
2017-12-10T09:44:17.182Z,4.11
2017-12-10T09:46:11.638Z,4.23
2017-12-10T09:47:11.662Z,4.27
2017-12-10T09:49:06.135Z,4.24
2017-12-10T09:50:06.118Z,4.27
2017-12-10T09:52:00.567Z,4.20
2017-12-10T09:53:00.623Z,4.16
2017-12-10T09:54:56.583Z,4.26
2017-12-10T09:55:56.575Z,4.23
2017-12-10T09:57:51.047Z,4.24
2017-12-10T09:58:51.072Z,4.40
2017-12-10T10:00:47.031Z,4.37
2017-12-10T10:01:47.023Z,4.26
2017-12-10T10:03:41.510Z,4.32
2017-12-10T10:04:41.511Z,4.33
2017-12-10T10:06:37.472Z,4.45
2017-12-10T10:07:37.463Z,4.33
2017-12-10T10:09:31.967Z,4.41
2017-12-10T10:10:31.959Z,4.45
2017-12-10T10:12:26.391Z,4.34
2017-12-10T10:13:26.423Z,4.47
2017-12-10T10:15:22.383Z,4.44
2017-12-10T10:16:22.399Z,4.45
2017-12-10T10:18:16.856Z,4.45
2017-12-10T10:19:16.871Z,4.45
2017-12-10T10:21:11.328Z,4.33
2017-12-10T10:22:11.360Z,4.45
2017-12-10T10:24:05.784Z,4.32
2017-12-10T10:25:05.816Z,4.42
2017-12-10T10:27:00.296Z,4.48
2017-12-10T10:28:00.288Z,4.33
2017-12-10T10:29:54.728Z,4.45
2017-12-10T10:30:54.776Z,4.48
2017-12-10T10:32:50.728Z,4.59
2017-12-10T10:33:50.736Z,4.60
2017-12-10T10:35:45.184Z,4.58
2017-12-10T10:36:45.224Z,4.34
2017-12-10T10:38:41.153Z,4.44
2017-12-10T10:39:41.201Z,4.54
2017-12-10T10:41:37.112Z,4.50
2017-12-10T10:42:37.145Z,4.48
2017-12-10T10:44:33.176Z,4.45
2017-12-10T10:45:33.137Z,4.55
2017-12-10T10:47:29.096Z,4.54
2017-12-10T10:48:29.113Z,4.50
2017-12-10T10:50:23.569Z,4.51
2017-12-10T10:51:23.593Z,4.34
2017-12-10T10:53:20.529Z,4.50
2017-12-10T10:54:20.561Z,4.52
2017-12-10T10:56:15.034Z,4.54
2017-12-10T10:57:15.050Z,4.58
2017-12-10T10:59:09.498Z,4.59
2017-12-10T11:00:09.521Z,4.50
2017-12-10T11:02:03.994Z,4.52
2017-12-10T11:03:03.994Z,4.54
2017-12-10T11:04:59.940Z,4.55
2017-12-10T11:05:59.971Z,4.48
2017-12-10T11:07:54.426Z,4.51
2017-12-10T11:08:54.434Z,4.47
2017-12-10T11:10:48.874Z,4.51
2017-12-10T11:11:48.923Z,4.51
2017-12-10T11:13:44.934Z,4.48
2017-12-10T11:14:44.898Z,4.51
2017-12-10T11:16:39.354Z,4.47
2017-12-10T11:17:39.394Z,4.40
2017-12-10T11:19:33.851Z,4.40
2017-12-10T11:20:33.850Z,4.36
2017-12-10T11:22:28.339Z,4.36
2017-12-10T11:23:28.339Z,4.37
2017-12-10T11:25:22.818Z,4.33
2017-12-10T11:26:22.819Z,4.24
2017-12-10T11:28:18.747Z,4.06
2017-12-10T11:29:18.795Z,4.08
2017-12-10T11:31:13.227Z,4.18
2017-12-10T11:32:13.274Z,4.26
2017-12-10T11:34:07.715Z,4.23
2017-12-10T11:35:07.739Z,4.09
2017-12-10T11:37:02.212Z,4.06
2017-12-10T11:38:02.219Z,4.15
2017-12-10T11:39:56.675Z,4.14
2017-12-10T11:40:56.708Z,4.05
2017-12-10T11:42:51.156Z,4.06
2017-12-10T11:43:51.188Z,3.97
2017-12-10T11:45:45.644Z,3.96
2017-12-10T11:46:45.644Z,4.00
2017-12-10T11:48:40.092Z,4.00
2017-12-10T11:49:40.123Z,4.06
2017-12-10T11:51:34.580Z,3.88
2017-12-10T11:52:34.604Z,3.88
2017-12-10T11:54:29.076Z,3.90
2017-12-10T11:55:29.068Z,3.88
2017-12-10T11:57:23.541Z,3.93
2017-12-10T11:58:23.548Z,3.93
2017-12-10T12:00:18.028Z,3.86
2017-12-10T12:01:18.037Z,3.78
2017-12-10T12:03:13.989Z,3.87
2017-12-10T12:04:14.005Z,3.88
2017-12-10T12:06:08.484Z,3.86
2017-12-10T12:07:08.493Z,3.80
2017-12-10T12:09:02.925Z,3.83
2017-12-10T12:10:02.957Z,3.87
2017-12-10T12:11:58.933Z,3.91
2017-12-10T12:12:58.956Z,3.80
2017-12-10T12:14:53.381Z,3.90
2017-12-10T12:15:53.420Z,4.05
2017-12-10T12:17:47.877Z,3.87
2017-12-10T12:18:47.885Z,3.90
2017-12-10T12:20:42.325Z,3.90
2017-12-10T12:21:42.341Z,3.90
2017-12-10T12:23:36.805Z,3.80
2017-12-10T12:24:36.837Z,3.73
2017-12-10T12:26:31.310Z,3.73
2017-12-10T12:27:31.342Z,3.78
2017-12-10T12:29:27.261Z,3.61
2017-12-10T12:30:27.294Z,3.61
2017-12-10T12:32:21.734Z,3.65
2017-12-10T12:33:21.766Z,3.62
2017-12-10T12:35:16.286Z,3.62
2017-12-10T12:36:16.239Z,3.61
2017-12-10T12:38:10.715Z,3.65
2017-12-10T12:39:10.718Z,3.60
2017-12-10T12:41:06.662Z,3.48
2017-12-10T12:42:06.694Z,3.54
2017-12-10T12:44:01.153Z,3.55
2017-12-10T12:45:01.167Z,3.47
2017-12-10T12:46:55.630Z,3.45
2017-12-10T12:47:55.655Z,3.45
2017-12-10T12:49:50.111Z,3.45
2017-12-10T12:50:50.119Z,3.45
2017-12-10T12:52:44.578Z,3.50
2017-12-10T12:53:44.598Z,3.54
2017-12-10T12:55:40.616Z,3.47
2017-12-10T12:56:40.606Z,3.48
2017-12-10T12:58:35.017Z,3.50
2017-12-10T12:59:35.047Z,3.47
2017-12-10T13:01:31.023Z,3.47
2017-12-10T13:02:31.023Z,3.43
2017-12-10T13:04:25.474Z,3.54
2017-12-10T13:05:25.487Z,3.58
2017-12-10T13:07:19.995Z,3.55
2017-12-10T13:08:19.995Z,3.55
2017-12-10T13:10:14.432Z,3.65
2017-12-10T13:11:14.439Z,3.61
2017-12-10T13:13:08.911Z,3.68
2017-12-10T13:14:08.936Z,3.62
2017-12-10T13:16:03.376Z,3.57
2017-12-10T13:17:03.400Z,3.58
2017-12-10T13:18:57.863Z,3.48
2017-12-10T13:19:57.872Z,3.45
2017-12-10T13:21:52.328Z,3.42
2017-12-10T13:22:52.344Z,3.48
2017-12-10T13:24:46.832Z,3.50
2017-12-10T13:25:46.840Z,3.42
2017-12-10T13:27:41.288Z,3.36
2017-12-10T13:28:41.301Z,3.32
2017-12-10T13:30:35.780Z,3.28
2017-12-10T13:31:35.776Z,3.10
2017-12-10T13:33:30.233Z,3.14
2017-12-10T13:34:30.256Z,3.17
2017-12-10T13:36:26.225Z,3.15
2017-12-10T13:37:26.279Z,3.08
2017-12-10T13:39:20.680Z,3.05
2017-12-10T13:40:20.698Z,3.14
2017-12-10T13:42:15.154Z,3.13
2017-12-10T13:43:15.170Z,3.14
2017-12-10T13:45:09.658Z,3.15
2017-12-10T13:46:09.650Z,3.14
2017-12-10T13:48:04.106Z,2.99
2017-12-10T13:49:04.162Z,3.05
2017-12-10T13:50:58.602Z,3.08
2017-12-10T13:51:58.602Z,2.96
2017-12-10T13:53:53.051Z,2.93
2017-12-10T13:54:53.090Z,2.92
2017-12-10T13:56:47.522Z,2.78
2017-12-10T13:57:47.562Z,2.95
2017-12-10T13:59:42.002Z,2.87
2017-12-10T14:00:42.043Z,2.87
2017-12-10T14:02:36.482Z,3.00
2017-12-10T14:03:36.498Z,2.87
2017-12-10T14:05:30.932Z,2.95
2017-12-10T14:06:30.971Z,2.95
2017-12-10T14:08:26.441Z,2.84
2017-12-10T14:09:26.479Z,2.77
2017-12-10T14:11:20.954Z,2.82
2017-12-10T14:12:20.922Z,2.85
2017-12-10T14:14:15.394Z,2.85
2017-12-10T14:15:15.402Z,2.79
2017-12-10T14:17:09.826Z,2.78
2017-12-10T14:18:09.857Z,2.78
2017-12-10T14:20:04.321Z,2.87
2017-12-10T14:21:04.337Z,2.85
2017-12-10T14:22:58.962Z,2.96
2017-12-10T14:23:58.970Z,2.96
2017-12-10T14:25:53.401Z,2.92
2017-12-10T14:26:53.441Z,2.85
2017-12-10T14:28:47.816Z,2.87
2017-12-10T14:29:47.848Z,3.00
2017-12-10T14:31:42.313Z,2.85
2017-12-10T14:32:42.305Z,2.78
2017-12-10T14:34:36.768Z,2.78
2017-12-10T14:35:36.793Z,2.85
2017-12-10T14:37:32.793Z,2.84
2017-12-10T14:38:32.825Z,2.82
2017-12-10T14:40:27.233Z,2.85
2017-12-10T14:41:27.265Z,2.85
2017-12-10T14:43:20.793Z,2.93
2017-12-10T14:44:20.865Z,2.85
2017-12-10T14:46:16.753Z,2.78
2017-12-10T14:47:16.769Z,2.81
2017-12-10T14:49:12.716Z,2.78
2017-12-10T14:50:12.753Z,2.81
2017-12-10T14:52:08.698Z,2.92
2017-12-10T14:53:08.714Z,2.90
2017-12-10T14:55:03.154Z,2.99
2017-12-10T14:56:03.178Z,2.97
2017-12-10T14:57:59.162Z,2.95
2017-12-10T14:58:59.250Z,2.99
2017-12-10T15:00:54.618Z,2.93
2017-12-10T15:01:54.626Z,2.84
2017-12-10T15:03:50.589Z,2.87
2017-12-10T15:04:50.578Z,2.90
2017-12-10T15:06:46.602Z,2.81
2017-12-10T15:07:46.626Z,2.75
2017-12-10T15:09:41.083Z,2.82
2017-12-10T15:10:41.099Z,2.82
2017-12-10T15:12:35.554Z,2.87
2017-12-10T15:13:35.628Z,2.90
2017-12-10T15:15:31.603Z,2.79
2017-12-10T15:16:31.571Z,2.84
2017-12-10T15:18:26.026Z,2.85
2017-12-10T15:19:26.035Z,2.81
2017-12-10T15:21:22.027Z,2.85
2017-12-10T15:22:22.044Z,2.85
2017-12-10T15:24:16.491Z,2.85
2017-12-10T15:25:16.523Z,2.85
2017-12-10T15:27:10.957Z,2.93
2017-12-10T15:28:10.979Z,2.93
2017-12-10T15:30:05.422Z,2.95
2017-12-10T15:31:05.507Z,3.00
2017-12-10T15:32:59.915Z,3.02
2017-12-10T15:33:59.954Z,2.96
2017-12-10T15:35:55.879Z,2.95
2017-12-10T15:36:55.913Z,2.92
2017-12-10T15:38:50.370Z,3.02
2017-12-10T15:39:50.402Z,2.99
2017-12-10T15:41:44.888Z,2.89
2017-12-10T15:42:44.897Z,2.97
2017-12-10T15:44:40.833Z,3.06
2017-12-10T15:45:40.841Z,3.08
2017-12-10T15:47:35.345Z,2.97
2017-12-10T15:48:35.322Z,3.03
2017-12-10T15:50:29.825Z,3.11
2017-12-10T15:51:29.793Z,3.18
2017-12-10T15:53:24.313Z,3.15
2017-12-10T15:54:24.262Z,3.20
2017-12-10T15:56:20.222Z,3.13
2017-12-10T15:57:20.245Z,3.17
2017-12-10T15:59:14.708Z,3.14
2017-12-10T16:00:14.703Z,3.15
2017-12-10T16:02:10.673Z,3.17
2017-12-10T16:03:10.680Z,3.15
2017-12-10T16:05:06.655Z,3.15
2017-12-10T16:06:06.655Z,3.14
2017-12-10T16:08:01.151Z,3.28
2017-12-10T16:09:01.136Z,3.31
2017-12-10T16:10:54.599Z,3.28
2017-12-10T16:11:54.676Z,3.26
2017-12-10T16:13:50.645Z,3.33
2017-12-10T16:14:50.628Z,3.23
2017-12-10T16:16:45.172Z,3.26
2017-12-10T16:17:45.084Z,3.26
2017-12-10T16:19:39.589Z,3.29
2017-12-10T16:20:39.580Z,3.23
2017-12-10T16:22:34.045Z,3.42
2017-12-10T16:23:34.037Z,3.43
2017-12-10T16:25:28.557Z,3.43
2017-12-10T16:26:28.509Z,3.52
2017-12-10T16:28:24.502Z,3.62
2017-12-10T16:29:24.478Z,3.66
2017-12-10T16:31:19.071Z,3.58
2017-12-10T16:32:18.950Z,3.69
2017-12-10T16:34:13.454Z,3.70
2017-12-10T16:35:13.509Z,3.73
2017-12-10T16:37:07.901Z,3.78
2017-12-10T16:38:07.980Z,3.76
2017-12-10T16:40:02.437Z,3.90
2017-12-10T16:41:02.395Z,3.79
2017-12-10T16:42:56.867Z,3.90
2017-12-10T16:43:56.871Z,3.90
2017-12-10T16:45:51.331Z,4.02
2017-12-10T16:46:51.324Z,3.84
2017-12-10T16:48:45.796Z,3.86
2017-12-10T16:49:45.892Z,3.88
2017-12-10T16:51:41.805Z,3.97
2017-12-10T16:52:41.777Z,4.00
2017-12-10T16:54:36.505Z,3.96
2017-12-10T16:55:36.769Z,4.02
2017-12-10T16:57:29.712Z,3.87
2017-12-10T16:58:30.833Z,3.90
2017-12-10T17:00:22.937Z,4.05
2017-12-10T17:01:22.753Z,4.04
2017-12-10T17:03:16.280Z,4.09
2017-12-10T17:04:16.241Z,4.09
2017-12-10T17:06:10.699Z,4.15
2017-12-10T17:07:10.722Z,4.16
2017-12-10T17:09:04.234Z,4.20
2017-12-10T17:10:04.210Z,4.23
2017-12-10T17:11:57.152Z,4.29
2017-12-10T17:12:57.184Z,4.29
2017-12-10T17:14:50.679Z,4.27
2017-12-10T17:15:50.231Z,4.24
2017-12-10T17:17:44.631Z,4.37
2017-12-10T17:18:44.623Z,4.34
2017-12-10T17:20:39.141Z,4.34
2017-12-10T17:21:39.152Z,4.36
2017-12-10T17:23:32.662Z,4.33
2017-12-10T17:24:32.589Z,4.33
2017-12-10T17:26:26.558Z,4.44
2017-12-10T17:27:25.622Z,4.51
2017-12-10T17:29:20.130Z,4.55
2017-12-10T17:30:21.058Z,4.52
2017-12-10T17:32:13.650Z,4.55
2017-12-10T17:33:13.673Z,4.59
2017-12-10T17:35:06.626Z,4.62
2017-12-10T17:36:06.650Z,4.58
2017-12-10T17:37:59.659Z,4.59
2017-12-10T17:38:59.682Z,4.55
2017-12-10T17:40:54.266Z,4.67
2017-12-10T17:41:54.234Z,4.66
2017-12-10T17:43:48.802Z,4.67
2017-12-10T17:44:48.842Z,4.67
2017-12-10T17:46:42.313Z,4.69
2017-12-10T17:47:42.363Z,4.63
2017-12-10T17:49:37.011Z,4.78
2017-12-10T17:50:36.818Z,4.75
2017-12-10T17:52:32.770Z,4.86
2017-12-10T17:53:32.779Z,4.88
2017-12-10T17:55:27.338Z,4.84
2017-12-10T17:56:27.321Z,4.89
2017-12-10T17:58:20.775Z,4.91
2017-12-10T17:59:20.817Z,4.89
2017-12-10T18:01:15.399Z,5.00
2017-12-10T18:02:15.319Z,5.06
2017-12-10T18:04:09.479Z,5.10
2017-12-10T18:05:09.647Z,5.18
2017-12-10T18:07:04.911Z,5.07
2017-12-10T18:08:04.912Z,5.13
2017-12-10T18:09:59.317Z,5.25
2017-12-10T18:10:59.375Z,5.27
2017-12-10T18:12:55.431Z,5.27
2017-12-10T18:13:55.440Z,5.27
2017-12-10T18:15:49.318Z,5.39
2017-12-10T18:16:48.808Z,5.45
2017-12-10T18:18:44.822Z,5.40
2017-12-10T18:19:44.853Z,5.53
2017-12-10T18:21:40.891Z,5.48
2017-12-10T18:22:40.882Z,5.51
2017-12-10T18:24:36.763Z,5.61
2017-12-10T18:25:36.763Z,5.61
2017-12-10T18:27:32.803Z,5.61
2017-12-10T18:28:32.779Z,5.56
2017-12-10T18:30:27.308Z,5.63
2017-12-10T18:31:27.235Z,5.72
2017-12-10T18:33:20.851Z,5.68
2017-12-10T18:34:21.283Z,5.67
2017-12-10T18:36:18.436Z,5.71
2017-12-10T18:37:16.436Z,5.72
2017-12-10T18:39:12.385Z,5.75
2017-12-10T18:40:12.401Z,5.74
2017-12-10T18:42:08.293Z,5.65
2017-12-10T18:43:08.237Z,5.75
2017-12-10T18:45:02.701Z,5.67
2017-12-10T18:46:02.813Z,5.79
2017-12-10T18:47:56.165Z,5.74
2017-12-10T18:48:56.708Z,5.72
2017-12-10T18:50:49.244Z,5.75
2017-12-10T18:51:49.421Z,5.71
2017-12-10T18:53:42.146Z,5.72
2017-12-10T18:54:42.145Z,5.65
2017-12-10T18:56:38.252Z,5.76
2017-12-10T18:57:38.285Z,5.76
2017-12-10T18:59:31.647Z,5.83
2017-12-10T19:00:31.690Z,5.81
2017-12-10T19:02:27.635Z,5.86
2017-12-10T19:03:27.670Z,5.86
2017-12-10T19:05:23.814Z,5.79
2017-12-10T19:06:23.618Z,5.82
2017-12-10T19:08:18.083Z,5.83
2017-12-10T19:09:18.091Z,5.86
2017-12-10T19:11:14.062Z,5.83
2017-12-10T19:12:14.301Z,5.85
2017-12-10T19:14:10.065Z,5.82
2017-12-10T19:15:10.098Z,5.86
2017-12-10T19:17:06.610Z,5.85
2017-12-10T19:18:06.167Z,5.89
2017-12-10T19:20:00.535Z,5.83